sensor_id;sensor_type;location;lat;lon;timestamp;temperature;humidity
61201;DHT22;47065;52.898;6.992;2023-02-15T00:01:51;1.60;99.90
61201;DHT22;47065;52.898;6.992;2023-02-15T00:04:19;1.60;99.90
61201;DHT22;47065;52.898;6.992;2023-02-15T00:06:45;1.50;99.90
61201;DHT22;47065;52.898;6.992;2023-02-15T00:09:12;1.50;99.90
61201;DHT22;47065;52.898;6.992;2023-02-15T00:11:38;1.50;99.90
61201;DHT22;47065;52.898;6.992;2023-02-15T00:14:22;1.50;99.90
61201;DHT22;47065;52.898;6.992;2023-02-15T00:16:50;1.40;99.90
61201;DHT22;47065;52.898;6.992;2023-02-15T00:19:18;1.40;99.90
61201;DHT22;47065;52.898;6.992;2023-02-15T00:21:44;1.40;99.90
61201;DHT22;47065;52.898;6.992;2023-02-15T00:24:13;1.30;99.90
61201;DHT22;47065;52.898;6.992;2023-02-15T00:26:40;1.30;99.90
61201;DHT22;47065;52.898;6.992;2023-02-15T00:29:07;1.30;99.90
61201;DHT22;47065;52.898;6.992;2023-02-15T00:31:33;1.30;99.90
61201;DHT22;47065;52.898;6.992;2023-02-15T00:34:23;1.30;99.90
61201;DHT22;47065;52.898;6.992;2023-02-15T00:36:49;1.20;99.90
61201;DHT22;47065;52.898;6.992;2023-02-15T00:39:16;1.20;99.90
61201;DHT22;47065;52.898;6.992;2023-02-15T00:41:43;1.20;99.90
61201;DHT22;47065;52.898;6.992;2023-02-15T00:44:09;1.20;99.90
61201;DHT22;47065;52.898;6.992;2023-02-15T00:46:35;1.10;99.90
61201;DHT22;47065;52.898;6.992;2023-02-15T00:49:01;1.20;99.90
61201;DHT22;47065;52.898;6.992;2023-02-15T00:51:27;1.10;99.90
61201;DHT22;47065;52.898;6.992;2023-02-15T00:53:53;1.10;99.90
61201;DHT22;47065;52.898;6.992;2023-02-15T00:56:19;1.10;99.90
61201;DHT22;47065;52.898;6.992;2023-02-15T00:58:44;1.10;99.90
61201;DHT22;47065;52.898;6.992;2023-02-15T01:01:16;1.10;99.90
61201;DHT22;47065;52.898;6.992;2023-02-15T01:03:42;1.00;99.90
61201;DHT22;47065;52.898;6.992;2023-02-15T01:06:09;1.00;99.90
61201;DHT22;47065;52.898;6.992;2023-02-15T01:08:34;1.00;99.90
61201;DHT22;47065;52.898;6.992;2023-02-15T01:11:12;1.00;99.90
61201;DHT22;47065;52.898;6.992;2023-02-15T01:13:39;1.00;99.90
61201;DHT22;47065;52.898;6.992;2023-02-15T01:16:05;1.00;99.90
61201;DHT22;47065;52.898;6.992;2023-02-15T01:18:31;0.90;99.90
61201;DHT22;47065;52.898;6.992;2023-02-15T01:20:57;0.80;99.90
61201;DHT22;47065;52.898;6.992;2023-02-15T01:23:23;0.80;99.90
61201;DHT22;47065;52.898;6.992;2023-02-15T01:25:49;0.90;99.90
61201;DHT22;47065;52.898;6.992;2023-02-15T01:28:14;0.80;99.90
61201;DHT22;47065;52.898;6.992;2023-02-15T01:30:40;0.80;99.90
61201;DHT22;47065;52.898;6.992;2023-02-15T01:33:06;0.80;99.90
61201;DHT22;47065;52.898;6.992;2023-02-15T01:35:32;0.80;99.90
61201;DHT22;47065;52.898;6.992;2023-02-15T01:37:57;0.80;99.90
61201;DHT22;47065;52.898;6.992;2023-02-15T01:40:24;0.80;99.90
61201;DHT22;47065;52.898;6.992;2023-02-15T01:42:54;0.80;99.90
61201;DHT22;47065;52.898;6.992;2023-02-15T01:45:29;0.70;99.90
61201;DHT22;47065;52.898;6.992;2023-02-15T01:48:06;0.70;99.90
61201;DHT22;47065;52.898;6.992;2023-02-15T01:50:44;0.70;99.90
61201;DHT22;47065;52.898;6.992;2023-02-15T01:55:57;0.60;99.90
61201;DHT22;47065;52.898;6.992;2023-02-15T01:58:25;0.60;99.90
61201;DHT22;47065;52.898;6.992;2023-02-15T02:00:51;0.60;99.90
61201;DHT22;47065;52.898;6.992;2023-02-15T02:03:19;0.50;99.90
61201;DHT22;47065;52.898;6.992;2023-02-15T02:05:49;0.60;99.90
61201;DHT22;47065;52.898;6.992;2023-02-15T02:08:15;0.60;99.90
61201;DHT22;47065;52.898;6.992;2023-02-15T02:10:40;0.50;99.90
61201;DHT22;47065;52.898;6.992;2023-02-15T02:13:06;0.50;99.90
61201;DHT22;47065;52.898;6.992;2023-02-15T02:16:08;0.50;99.90
61201;DHT22;47065;52.898;6.992;2023-02-15T02:19:17;0.50;99.90
61201;DHT22;47065;52.898;6.992;2023-02-15T02:27:39;0.40;99.90
61201;DHT22;47065;52.898;6.992;2023-02-15T02:33:07;0.40;99.90
61201;DHT22;47065;52.898;6.992;2023-02-15T02:35:46;0.40;99.90
61201;DHT22;47065;52.898;6.992;2023-02-15T02:41:49;0.40;99.90
61201;DHT22;47065;52.898;6.992;2023-02-15T02:44:41;0.40;99.90
61201;DHT22;47065;52.898;6.992;2023-02-15T02:47:15;0.40;99.90
61201;DHT22;47065;52.898;6.992;2023-02-15T02:49:43;0.40;99.90
61201;DHT22;47065;52.898;6.992;2023-02-15T02:55:20;0.40;99.90
61201;DHT22;47065;52.898;6.992;2023-02-15T03:00:30;0.30;99.90
61201;DHT22;47065;52.898;6.992;2023-02-15T03:03:09;0.20;99.90
61201;DHT22;47065;52.898;6.992;2023-02-15T03:05:39;0.20;99.90
61201;DHT22;47065;52.898;6.992;2023-02-15T03:08:06;0.20;99.90
61201;DHT22;47065;52.898;6.992;2023-02-15T03:10:35;0.20;99.90
61201;DHT22;47065;52.898;6.992;2023-02-15T03:13:02;0.20;99.90
61201;DHT22;47065;52.898;6.992;2023-02-15T03:15:35;0.20;99.90
61201;DHT22;47065;52.898;6.992;2023-02-15T03:18:29;0.20;99.90
61201;DHT22;47065;52.898;6.992;2023-02-15T03:20:57;0.20;99.90
61201;DHT22;47065;52.898;6.992;2023-02-15T03:23:24;0.20;99.90
61201;DHT22;47065;52.898;6.992;2023-02-15T03:26:02;0.20;99.90
61201;DHT22;47065;52.898;6.992;2023-02-15T03:28:38;0.20;99.90
61201;DHT22;47065;52.898;6.992;2023-02-15T03:31:07;0.20;99.90
61201;DHT22;47065;52.898;6.992;2023-02-15T03:33:36;0.20;99.90
61201;DHT22;47065;52.898;6.992;2023-02-15T03:39:15;0.20;99.90
61201;DHT22;47065;52.898;6.992;2023-02-15T03:44:35;0.30;99.90
61201;DHT22;47065;52.898;6.992;2023-02-15T03:47:08;0.30;99.90
61201;DHT22;47065;52.898;6.992;2023-02-15T03:52:11;0.30;99.90
61201;DHT22;47065;52.898;6.992;2023-02-15T03:54:37;0.40;99.90
61201;DHT22;47065;52.898;6.992;2023-02-15T03:57:22;0.40;99.90
61201;DHT22;47065;52.898;6.992;2023-02-15T04:00:19;0.30;99.90
61201;DHT22;47065;52.898;6.992;2023-02-15T04:03:31;0.30;99.90
61201;DHT22;47065;52.898;6.992;2023-02-15T04:06:00;0.30;99.90
61201;DHT22;47065;52.898;6.992;2023-02-15T04:08:26;0.20;99.90
61201;DHT22;47065;52.898;6.992;2023-02-15T04:11:12;0.20;99.90
61201;DHT22;47065;52.898;6.992;2023-02-15T04:13:38;0.20;99.90
61201;DHT22;47065;52.898;6.992;2023-02-15T04:16:04;0.20;99.90
61201;DHT22;47065;52.898;6.992;2023-02-15T04:18:35;0.10;99.90
61201;DHT22;47065;52.898;6.992;2023-02-15T04:21:21;0.10;99.90
61201;DHT22;47065;52.898;6.992;2023-02-15T04:24:06;0.10;99.90
61201;DHT22;47065;52.898;6.992;2023-02-15T04:26:51;0.10;99.90
61201;DHT22;47065;52.898;6.992;2023-02-15T04:29:19;0.00;99.90
61201;DHT22;47065;52.898;6.992;2023-02-15T04:31:44;0.00;99.90
61201;DHT22;47065;52.898;6.992;2023-02-15T04:34:10;0.10;99.90
61201;DHT22;47065;52.898;6.992;2023-02-15T04:36:37;0.00;99.90
61201;DHT22;47065;52.898;6.992;2023-02-15T04:39:04;0.00;99.90
61201;DHT22;47065;52.898;6.992;2023-02-15T04:41:30;0.00;99.90
61201;DHT22;47065;52.898;6.992;2023-02-15T04:43:55;0.00;99.90
61201;DHT22;47065;52.898;6.992;2023-02-15T04:46:21;0.00;99.90
61201;DHT22;47065;52.898;6.992;2023-02-15T04:48:47;0.00;99.90
61201;DHT22;47065;52.898;6.992;2023-02-15T04:51:13;0.00;99.90
61201;DHT22;47065;52.898;6.992;2023-02-15T04:53:38;0.00;99.90
61201;DHT22;47065;52.898;6.992;2023-02-15T04:56:04;0.00;99.90
61201;DHT22;47065;52.898;6.992;2023-02-15T04:58:30;0.00;99.90
61201;DHT22;47065;52.898;6.992;2023-02-15T05:00:56;0.00;99.90
61201;DHT22;47065;52.898;6.992;2023-02-15T05:03:22;0.00;99.90
61201;DHT22;47065;52.898;6.992;2023-02-15T05:05:48;0.00;99.90
61201;DHT22;47065;52.898;6.992;2023-02-15T05:08:14;0.00;99.90
61201;DHT22;47065;52.898;6.992;2023-02-15T05:10:40;0.00;99.90
61201;DHT22;47065;52.898;6.992;2023-02-15T05:13:05;0.00;99.90
61201;DHT22;47065;52.898;6.992;2023-02-15T05:15:31;0.00;99.90
61201;DHT22;47065;52.898;6.992;2023-02-15T05:17:57;0.00;99.90
61201;DHT22;47065;52.898;6.992;2023-02-15T05:20:22;0.00;99.90
61201;DHT22;47065;52.898;6.992;2023-02-15T05:22:48;0.00;99.90
61201;DHT22;47065;52.898;6.992;2023-02-15T05:25:13;0.00;99.90
61201;DHT22;47065;52.898;6.992;2023-02-15T05:27:58;0.10;99.90
61201;DHT22;47065;52.898;6.992;2023-02-15T05:30:42;0.10;99.90
61201;DHT22;47065;52.898;6.992;2023-02-15T05:33:08;0.00;99.90
61201;DHT22;47065;52.898;6.992;2023-02-15T05:35:34;0.00;99.90
61201;DHT22;47065;52.898;6.992;2023-02-15T05:38:00;0.00;99.90
61201;DHT22;47065;52.898;6.992;2023-02-15T05:40:26;0.10;99.90
61201;DHT22;47065;52.898;6.992;2023-02-15T05:42:51;0.10;99.90
61201;DHT22;47065;52.898;6.992;2023-02-15T05:45:17;0.10;99.90
61201;DHT22;47065;52.898;6.992;2023-02-15T05:47:43;0.10;99.90
61201;DHT22;47065;52.898;6.992;2023-02-15T05:50:09;0.20;99.90
61201;DHT22;47065;52.898;6.992;2023-02-15T05:52:36;0.20;99.90
61201;DHT22;47065;52.898;6.992;2023-02-15T05:55:03;0.30;99.90
61201;DHT22;47065;52.898;6.992;2023-02-15T05:57:29;0.30;99.90
61201;DHT22;47065;52.898;6.992;2023-02-15T05:59:55;0.30;99.90
61201;DHT22;47065;52.898;6.992;2023-02-15T06:02:21;0.30;99.90
61201;DHT22;47065;52.898;6.992;2023-02-15T06:04:47;0.30;99.90
61201;DHT22;47065;52.898;6.992;2023-02-15T06:07:12;0.30;99.90
61201;DHT22;47065;52.898;6.992;2023-02-15T06:09:38;0.30;99.90
61201;DHT22;47065;52.898;6.992;2023-02-15T06:12:04;0.20;99.90
61201;DHT22;47065;52.898;6.992;2023-02-15T06:14:30;0.20;99.90
61201;DHT22;47065;52.898;6.992;2023-02-15T06:16:56;0.10;99.90
61201;DHT22;47065;52.898;6.992;2023-02-15T06:19:21;0.10;99.90
61201;DHT22;47065;52.898;6.992;2023-02-15T06:21:48;0.10;99.90
61201;DHT22;47065;52.898;6.992;2023-02-15T06:24:14;0.00;99.90
61201;DHT22;47065;52.898;6.992;2023-02-15T06:26:40;0.00;99.90
61201;DHT22;47065;52.898;6.992;2023-02-15T06:29:06;0.00;99.90
61201;DHT22;47065;52.898;6.992;2023-02-15T06:31:32;0.00;99.90
61201;DHT22;47065;52.898;6.992;2023-02-15T06:33:57;0.10;99.90
61201;DHT22;47065;52.898;6.992;2023-02-15T06:36:30;0.10;99.90
61201;DHT22;47065;52.898;6.992;2023-02-15T06:38:56;0.20;99.90
61201;DHT22;47065;52.898;6.992;2023-02-15T06:41:22;0.20;99.90
61201;DHT22;47065;52.898;6.992;2023-02-15T06:43:48;0.30;99.90
61201;DHT22;47065;52.898;6.992;2023-02-15T06:46:14;0.30;99.90
61201;DHT22;47065;52.898;6.992;2023-02-15T06:48:39;0.40;99.90
61201;DHT22;47065;52.898;6.992;2023-02-15T06:51:05;0.40;99.90
61201;DHT22;47065;52.898;6.992;2023-02-15T06:53:30;0.40;99.90
61201;DHT22;47065;52.898;6.992;2023-02-15T06:56:04;0.40;99.90
61201;DHT22;47065;52.898;6.992;2023-02-15T06:58:41;0.40;99.90
61201;DHT22;47065;52.898;6.992;2023-02-15T07:01:08;0.40;99.90
61201;DHT22;47065;52.898;6.992;2023-02-15T07:03:34;0.30;99.90
61201;DHT22;47065;52.898;6.992;2023-02-15T07:06:01;0.30;99.90
61201;DHT22;47065;52.898;6.992;2023-02-15T07:08:28;0.20;99.90
61201;DHT22;47065;52.898;6.992;2023-02-15T07:10:55;0.20;99.90
61201;DHT22;47065;52.898;6.992;2023-02-15T07:13:41;0.20;99.90
61201;DHT22;47065;52.898;6.992;2023-02-15T07:16:08;0.30;99.90
61201;DHT22;47065;52.898;6.992;2023-02-15T07:18:35;0.30;99.90
61201;DHT22;47065;52.898;6.992;2023-02-15T07:21:00;0.30;99.90
61201;DHT22;47065;52.898;6.992;2023-02-15T07:23:27;0.40;99.90
61201;DHT22;47065;52.898;6.992;2023-02-15T07:26:00;0.40;99.90
61201;DHT22;47065;52.898;6.992;2023-02-15T07:28:27;0.50;99.90
61201;DHT22;47065;52.898;6.992;2023-02-15T07:30:52;0.50;99.90
61201;DHT22;47065;52.898;6.992;2023-02-15T07:33:18;0.60;99.90
61201;DHT22;47065;52.898;6.992;2023-02-15T07:35:55;0.70;99.90
61201;DHT22;47065;52.898;6.992;2023-02-15T07:38:24;0.70;99.90
61201;DHT22;47065;52.898;6.992;2023-02-15T07:40:50;0.80;99.90
61201;DHT22;47065;52.898;6.992;2023-02-15T07:43:16;0.80;99.90
61201;DHT22;47065;52.898;6.992;2023-02-15T07:45:42;0.90;99.90
61201;DHT22;47065;52.898;6.992;2023-02-15T07:48:08;0.90;99.90
61201;DHT22;47065;52.898;6.992;2023-02-15T07:50:34;0.90;99.90
61201;DHT22;47065;52.898;6.992;2023-02-15T07:53:02;1.00;99.90
61201;DHT22;47065;52.898;6.992;2023-02-15T07:55:27;1.10;99.90
61201;DHT22;47065;52.898;6.992;2023-02-15T07:57:53;1.10;99.90
61201;DHT22;47065;52.898;6.992;2023-02-15T08:00:22;1.20;99.90
61201;DHT22;47065;52.898;6.992;2023-02-15T08:02:56;1.30;99.90
61201;DHT22;47065;52.898;6.992;2023-02-15T08:05:41;1.40;99.90
61201;DHT22;47065;52.898;6.992;2023-02-15T08:08:07;1.40;99.90
61201;DHT22;47065;52.898;6.992;2023-02-15T08:10:35;1.50;99.90
61201;DHT22;47065;52.898;6.992;2023-02-15T08:13:20;1.50;99.90
61201;DHT22;47065;52.898;6.992;2023-02-15T08:15:49;1.60;99.90
61201;DHT22;47065;52.898;6.992;2023-02-15T08:18:15;1.60;99.90
61201;DHT22;47065;52.898;6.992;2023-02-15T08:20:41;1.70;99.90
61201;DHT22;47065;52.898;6.992;2023-02-15T08:23:07;1.70;99.90
61201;DHT22;47065;52.898;6.992;2023-02-15T08:25:32;1.80;99.90
61201;DHT22;47065;52.898;6.992;2023-02-15T08:27:58;1.80;99.90
61201;DHT22;47065;52.898;6.992;2023-02-15T08:30:23;1.90;99.90
61201;DHT22;47065;52.898;6.992;2023-02-15T08:32:49;1.90;99.90
61201;DHT22;47065;52.898;6.992;2023-02-15T08:35:15;2.00;99.90
61201;DHT22;47065;52.898;6.992;2023-02-15T08:37:40;2.10;99.90
61201;DHT22;47065;52.898;6.992;2023-02-15T08:40:06;2.20;99.90
61201;DHT22;47065;52.898;6.992;2023-02-15T08:42:33;2.30;99.90
61201;DHT22;47065;52.898;6.992;2023-02-15T08:44:59;2.40;99.90
61201;DHT22;47065;52.898;6.992;2023-02-15T08:47:24;2.60;99.90
61201;DHT22;47065;52.898;6.992;2023-02-15T08:49:50;2.80;99.90
61201;DHT22;47065;52.898;6.992;2023-02-15T08:52:16;2.90;99.90
61201;DHT22;47065;52.898;6.992;2023-02-15T08:54:42;3.10;99.90
61201;DHT22;47065;52.898;6.992;2023-02-15T08:57:08;3.40;99.90
61201;DHT22;47065;52.898;6.992;2023-02-15T08:59:35;3.60;99.90
61201;DHT22;47065;52.898;6.992;2023-02-15T09:02:01;3.80;99.90
61201;DHT22;47065;52.898;6.992;2023-02-15T09:04:26;4.00;99.90
61201;DHT22;47065;52.898;6.992;2023-02-15T09:06:52;4.20;99.90
61201;DHT22;47065;52.898;6.992;2023-02-15T09:09:19;4.40;99.90
61201;DHT22;47065;52.898;6.992;2023-02-15T09:11:46;4.60;99.90
61201;DHT22;47065;52.898;6.992;2023-02-15T09:14:17;4.80;99.90
61201;DHT22;47065;52.898;6.992;2023-02-15T09:16:45;5.10;99.90
61201;DHT22;47065;52.898;6.992;2023-02-15T09:19:17;5.40;99.90
61201;DHT22;47065;52.898;6.992;2023-02-15T09:21:43;5.70;99.90
61201;DHT22;47065;52.898;6.992;2023-02-15T09:24:10;6.00;99.90
61201;DHT22;47065;52.898;6.992;2023-02-15T09:26:39;6.40;99.90
61201;DHT22;47065;52.898;6.992;2023-02-15T09:29:06;6.90;99.90
61201;DHT22;47065;52.898;6.992;2023-02-15T09:31:36;7.30;99.90
61201;DHT22;47065;52.898;6.992;2023-02-15T09:34:03;7.80;99.90
61201;DHT22;47065;52.898;6.992;2023-02-15T09:36:35;8.30;99.90
61201;DHT22;47065;52.898;6.992;2023-02-15T09:55:03;8.30;99.90
61201;DHT22;47065;52.898;6.992;2023-02-15T10:00:33;8.20;99.90
61201;DHT22;47065;52.898;6.992;2023-02-15T10:19:30;8.30;99.90
61201;DHT22;47065;52.898;6.992;2023-02-15T10:22:16;8.30;99.90
61201;DHT22;47065;52.898;6.992;2023-02-15T10:28:02;8.30;99.90
61201;DHT22;47065;52.898;6.992;2023-02-15T10:30:44;8.40;99.90
61201;DHT22;47065;52.898;6.992;2023-02-15T10:41:37;8.40;99.90
61201;DHT22;47065;52.898;6.992;2023-02-15T10:52:21;8.60;99.90
61201;DHT22;47065;52.898;6.992;2023-02-15T10:55:22;8.70;99.90
61201;DHT22;47065;52.898;6.992;2023-02-15T10:58:03;8.80;99.90
61201;DHT22;47065;52.898;6.992;2023-02-15T11:00:43;8.90;99.90
61201;DHT22;47065;52.898;6.992;2023-02-15T11:06:16;9.10;99.90
61201;DHT22;47065;52.898;6.992;2023-02-15T11:08:57;9.10;99.90
61201;DHT22;47065;52.898;6.992;2023-02-15T11:11:36;9.20;99.90
61201;DHT22;47065;52.898;6.992;2023-02-15T11:16:59;9.50;99.90
61201;DHT22;47065;52.898;6.992;2023-02-15T11:19:33;9.70;99.90
61201;DHT22;47065;52.898;6.992;2023-02-15T11:22:04;9.80;99.90
61201;DHT22;47065;52.898;6.992;2023-02-15T11:24:32;9.90;99.90
61201;DHT22;47065;52.898;6.992;2023-02-15T11:32:25;10.10;99.90
61201;DHT22;47065;52.898;6.992;2023-02-15T11:35:32;10.20;99.90
61201;DHT22;47065;52.898;6.992;2023-02-15T11:40:34;10.50;99.90
61201;DHT22;47065;52.898;6.992;2023-02-15T11:43:06;10.60;99.90
61201;DHT22;47065;52.898;6.992;2023-02-15T11:45:34;10.70;99.90
61201;DHT22;47065;52.898;6.992;2023-02-15T11:48:01;10.80;99.90
61201;DHT22;47065;52.898;6.992;2023-02-15T11:50:33;10.90;99.90
61201;DHT22;47065;52.898;6.992;2023-02-15T11:53:02;11.00;99.90
61201;DHT22;47065;52.898;6.992;2023-02-15T11:55:30;11.10;99.90
61201;DHT22;47065;52.898;6.992;2023-02-15T12:00:50;11.20;99.90
61201;DHT22;47065;52.898;6.992;2023-02-15T12:06:03;11.10;99.90
61201;DHT22;47065;52.898;6.992;2023-02-15T12:08:37;11.10;99.90
61201;DHT22;47065;52.898;6.992;2023-02-15T12:11:09;11.20;99.90
61201;DHT22;47065;52.898;6.992;2023-02-15T12:14:00;11.20;99.90
61201;DHT22;47065;52.898;6.992;2023-02-15T12:16:28;11.30;99.90
61201;DHT22;47065;52.898;6.992;2023-02-15T12:18:57;11.30;99.90
61201;DHT22;47065;52.898;6.992;2023-02-15T12:21:27;11.40;99.90
61201;DHT22;47065;52.898;6.992;2023-02-15T12:24:03;11.50;99.90
61201;DHT22;47065;52.898;6.992;2023-02-15T12:26:32;11.50;99.90
61201;DHT22;47065;52.898;6.992;2023-02-15T12:29:15;11.50;99.90
61201;DHT22;47065;52.898;6.992;2023-02-15T12:31:44;11.60;99.90
61201;DHT22;47065;52.898;6.992;2023-02-15T12:34:22;11.70;99.90
61201;DHT22;47065;52.898;6.992;2023-02-15T12:36:51;11.70;99.90
61201;DHT22;47065;52.898;6.992;2023-02-15T12:39:25;11.80;99.90
61201;DHT22;47065;52.898;6.992;2023-02-15T12:44:23;11.80;99.90
61201;DHT22;47065;52.898;6.992;2023-02-15T12:47:18;11.90;99.90
61201;DHT22;47065;52.898;6.992;2023-02-15T12:49:45;12.00;99.90
61201;DHT22;47065;52.898;6.992;2023-02-15T12:52:28;12.10;99.90
61201;DHT22;47065;52.898;6.992;2023-02-15T12:54:54;12.10;99.90
61201;DHT22;47065;52.898;6.992;2023-02-15T12:57:33;12.10;99.90
61201;DHT22;47065;52.898;6.992;2023-02-15T13:00:06;12.10;99.90
61201;DHT22;47065;52.898;6.992;2023-02-15T13:02:54;12.10;99.90
61201;DHT22;47065;52.898;6.992;2023-02-15T13:05:41;12.20;99.90
61201;DHT22;47065;52.898;6.992;2023-02-15T13:08:18;12.20;99.90
61201;DHT22;47065;52.898;6.992;2023-02-15T13:11:07;12.20;99.90
61201;DHT22;47065;52.898;6.992;2023-02-15T13:13:47;12.20;99.90
61201;DHT22;47065;52.898;6.992;2023-02-15T13:16:19;12.30;99.90
61201;DHT22;47065;52.898;6.992;2023-02-15T13:18:46;12.30;99.90
61201;DHT22;47065;52.898;6.992;2023-02-15T13:23:46;12.30;99.90
61201;DHT22;47065;52.898;6.992;2023-02-15T13:26:25;12.30;99.90
61201;DHT22;47065;52.898;6.992;2023-02-15T13:28:57;12.30;99.90
61201;DHT22;47065;52.898;6.992;2023-02-15T13:31:27;12.20;99.90
61201;DHT22;47065;52.898;6.992;2023-02-15T13:34:07;12.30;99.90
61201;DHT22;47065;52.898;6.992;2023-02-15T13:39:39;12.20;99.90
61201;DHT22;47065;52.898;6.992;2023-02-15T13:42:35;12.10;99.90
61201;DHT22;47065;52.898;6.992;2023-02-15T13:48:02;12.00;99.90
61201;DHT22;47065;52.898;6.992;2023-02-15T13:59:12;11.90;99.90
61201;DHT22;47065;52.898;6.992;2023-02-15T14:04:29;11.80;99.90
61201;DHT22;47065;52.898;6.992;2023-02-15T14:09:52;11.70;99.90
61201;DHT22;47065;52.898;6.992;2023-02-15T14:15:38;11.80;99.90
61201;DHT22;47065;52.898;6.992;2023-02-15T14:18:19;11.80;99.90
61201;DHT22;47065;52.898;6.992;2023-02-15T14:21:09;11.80;99.90
61201;DHT22;47065;52.898;6.992;2023-02-15T14:23:49;11.80;99.90
61201;DHT22;47065;52.898;6.992;2023-02-15T14:31:30;11.80;99.90
61201;DHT22;47065;52.898;6.992;2023-02-15T14:33:57;11.80;99.90
61201;DHT22;47065;52.898;6.992;2023-02-15T14:36:24;11.90;99.90
61201;DHT22;47065;52.898;6.992;2023-02-15T14:42:24;11.90;99.90
61201;DHT22;47065;52.898;6.992;2023-02-15T14:45:04;11.90;99.90
61201;DHT22;47065;52.898;6.992;2023-02-15T14:47:36;11.80;99.90
61201;DHT22;47065;52.898;6.992;2023-02-15T14:53:25;11.80;99.90
61201;DHT22;47065;52.898;6.992;2023-02-15T14:58:55;11.70;99.90
61201;DHT22;47065;52.898;6.992;2023-02-15T15:01:40;11.70;99.90
61201;DHT22;47065;52.898;6.992;2023-02-15T15:04:09;11.60;99.90
61201;DHT22;47065;52.898;6.992;2023-02-15T15:06:39;11.60;99.90
61201;DHT22;47065;52.898;6.992;2023-02-15T15:09:27;11.50;99.90
61201;DHT22;47065;52.898;6.992;2023-02-15T15:12:12;11.50;99.90
61201;DHT22;47065;52.898;6.992;2023-02-15T15:14:41;11.40;99.90
61201;DHT22;47065;52.898;6.992;2023-02-15T15:17:10;11.40;99.90
61201;DHT22;47065;52.898;6.992;2023-02-15T15:22:22;11.30;99.90
61201;DHT22;47065;52.898;6.992;2023-02-15T15:24:57;11.30;99.90
61201;DHT22;47065;52.898;6.992;2023-02-15T15:27:43;11.20;99.90
61201;DHT22;47065;52.898;6.992;2023-02-15T15:44:11;11.00;99.90
61201;DHT22;47065;52.898;6.992;2023-02-15T15:49:30;10.90;99.90
61201;DHT22;47065;52.898;6.992;2023-02-15T15:52:00;10.80;99.90
61201;DHT22;47065;52.898;6.992;2023-02-15T15:54:26;10.70;99.90
61201;DHT22;47065;52.898;6.992;2023-02-15T15:57:02;10.70;99.90
61201;DHT22;47065;52.898;6.992;2023-02-15T15:59:31;10.70;99.90
61201;DHT22;47065;52.898;6.992;2023-02-15T16:02:06;10.60;99.90
61201;DHT22;47065;52.898;6.992;2023-02-15T16:04:32;10.50;99.90
61201;DHT22;47065;52.898;6.992;2023-02-15T16:10:00;10.40;99.90
61201;DHT22;47065;52.898;6.992;2023-02-15T16:12:28;10.40;99.90
61201;DHT22;47065;52.898;6.992;2023-02-15T16:14:54;10.30;99.90
61201;DHT22;47065;52.898;6.992;2023-02-15T16:17:26;10.30;99.90
61201;DHT22;47065;52.898;6.992;2023-02-15T16:22:39;10.10;99.90
61201;DHT22;47065;52.898;6.992;2023-02-15T16:27:43;10.00;99.90
61201;DHT22;47065;52.898;6.992;2023-02-15T16:30:30;9.90;99.90
61201;DHT22;47065;52.898;6.992;2023-02-15T16:33:09;9.80;99.90
61201;DHT22;47065;52.898;6.992;2023-02-15T16:35:38;9.70;99.90
61201;DHT22;47065;52.898;6.992;2023-02-15T16:38:05;9.60;99.90
61201;DHT22;47065;52.898;6.992;2023-02-15T16:43:04;9.40;99.90
61201;DHT22;47065;52.898;6.992;2023-02-15T16:45:32;9.30;99.90
61201;DHT22;47065;52.898;6.992;2023-02-15T16:48:00;9.20;99.90
61201;DHT22;47065;52.898;6.992;2023-02-15T16:50:33;9.20;99.90
61201;DHT22;47065;52.898;6.992;2023-02-15T16:53:00;9.20;99.90
61201;DHT22;47065;52.898;6.992;2023-02-15T16:55:29;9.10;99.90
61201;DHT22;47065;52.898;6.992;2023-02-15T16:58:01;9.10;99.90
61201;DHT22;47065;52.898;6.992;2023-02-15T17:00:32;9.10;99.90
61201;DHT22;47065;52.898;6.992;2023-02-15T17:05:52;9.00;99.90
61201;DHT22;47065;52.898;6.992;2023-02-15T17:08:31;9.00;99.90
61201;DHT22;47065;52.898;6.992;2023-02-15T17:11:14;9.00;99.90
61201;DHT22;47065;52.898;6.992;2023-02-15T17:16:35;8.90;99.90
61201;DHT22;47065;52.898;6.992;2023-02-15T17:19:08;8.90;99.90
61201;DHT22;47065;52.898;6.992;2023-02-15T17:21:47;8.80;99.90
61201;DHT22;47065;52.898;6.992;2023-02-15T17:27:04;8.60;99.90
61201;DHT22;47065;52.898;6.992;2023-02-15T17:29:37;8.60;99.90
61201;DHT22;47065;52.898;6.992;2023-02-15T17:32:09;8.60;99.90
61201;DHT22;47065;52.898;6.992;2023-02-15T17:40:29;8.40;99.90
61201;DHT22;47065;52.898;6.992;2023-02-15T17:42:55;8.40;99.90
61201;DHT22;47065;52.898;6.992;2023-02-15T17:45:24;8.30;99.90
61201;DHT22;47065;52.898;6.992;2023-02-15T17:47:50;8.30;99.90
61201;DHT22;47065;52.898;6.992;2023-02-15T17:50:27;8.30;99.90
61201;DHT22;47065;52.898;6.992;2023-02-15T17:52:54;8.20;99.90
61201;DHT22;47065;52.898;6.992;2023-02-15T17:55:22;8.20;99.90
61201;DHT22;47065;52.898;6.992;2023-02-15T17:58:02;8.10;99.90
61201;DHT22;47065;52.898;6.992;2023-02-15T18:00:31;8.10;99.90
61201;DHT22;47065;52.898;6.992;2023-02-15T18:03:18;8.10;99.90
61201;DHT22;47065;52.898;6.992;2023-02-15T18:06:02;7.90;99.90
61201;DHT22;47065;52.898;6.992;2023-02-15T18:08:47;8.00;99.90
61201;DHT22;47065;52.898;6.992;2023-02-15T18:11:31;7.90;99.90
61201;DHT22;47065;52.898;6.992;2023-02-15T18:14:09;7.90;99.90
61201;DHT22;47065;52.898;6.992;2023-02-15T18:16:40;7.90;99.90
61201;DHT22;47065;52.898;6.992;2023-02-15T18:19:22;7.80;99.90
61201;DHT22;47065;52.898;6.992;2023-02-15T18:21:48;7.80;99.90
61201;DHT22;47065;52.898;6.992;2023-02-15T18:24:21;7.70;99.90
61201;DHT22;47065;52.898;6.992;2023-02-15T18:26:50;7.70;99.90
61201;DHT22;47065;52.898;6.992;2023-02-15T18:29:15;7.60;99.90
61201;DHT22;47065;52.898;6.992;2023-02-15T18:31:43;7.60;99.90
61201;DHT22;47065;52.898;6.992;2023-02-15T18:34:22;7.50;99.90
61201;DHT22;47065;52.898;6.992;2023-02-15T18:36:49;7.50;99.90
61201;DHT22;47065;52.898;6.992;2023-02-15T18:39:26;7.50;99.90
61201;DHT22;47065;52.898;6.992;2023-02-15T18:41:52;7.40;99.90
61201;DHT22;47065;52.898;6.992;2023-02-15T18:44:18;7.40;99.90
61201;DHT22;47065;52.898;6.992;2023-02-15T18:46:44;7.40;99.90
61201;DHT22;47065;52.898;6.992;2023-02-15T18:49:09;7.30;99.90
61201;DHT22;47065;52.898;6.992;2023-02-15T18:51:35;7.30;99.90
61201;DHT22;47065;52.898;6.992;2023-02-15T18:54:10;7.30;99.90
61201;DHT22;47065;52.898;6.992;2023-02-15T18:56:40;7.20;99.90
61201;DHT22;47065;52.898;6.992;2023-02-15T18:59:05;7.20;99.90
61201;DHT22;47065;52.898;6.992;2023-02-15T19:01:31;7.00;99.90
61201;DHT22;47065;52.898;6.992;2023-02-15T19:03:56;7.00;99.90
61201;DHT22;47065;52.898;6.992;2023-02-15T19:06:22;6.90;99.90
61201;DHT22;47065;52.898;6.992;2023-02-15T19:08:50;6.90;99.90
61201;DHT22;47065;52.898;6.992;2023-02-15T19:11:19;6.80;99.90
61201;DHT22;47065;52.898;6.992;2023-02-15T19:13:45;6.80;99.90
61201;DHT22;47065;52.898;6.992;2023-02-15T19:16:30;6.70;99.90
61201;DHT22;47065;52.898;6.992;2023-02-15T19:18:55;6.80;99.90